sensor_id;sensor_type;location;lat;lon;timestamp;temperature;humidity
41924;DHT22;27613;48.116;11.656;2023-01-13T00:02:12;5.60;94.40
41924;DHT22;27613;48.116;11.656;2023-01-13T00:04:37;5.60;94.20
41924;DHT22;27613;48.116;11.656;2023-01-13T00:07:03;5.70;94.00
41924;DHT22;27613;48.116;11.656;2023-01-13T00:09:28;5.70;94.20
41924;DHT22;27613;48.116;11.656;2023-01-13T00:11:54;5.60;94.30
41924;DHT22;27613;48.116;11.656;2023-01-13T00:14:20;5.60;94.40
41924;DHT22;27613;48.116;11.656;2023-01-13T00:16:46;5.60;94.50
41924;DHT22;27613;48.116;11.656;2023-01-13T00:19:11;5.50;94.60
41924;DHT22;27613;48.116;11.656;2023-01-13T00:21:37;5.50;94.80
41924;DHT22;27613;48.116;11.656;2023-01-13T00:24:02;5.60;94.60
41924;DHT22;27613;48.116;11.656;2023-01-13T00:26:28;5.60;94.60
41924;DHT22;27613;48.116;11.656;2023-01-13T00:29:00;5.80;94.30
41924;DHT22;27613;48.116;11.656;2023-01-13T00:31:27;5.90;94.20
41924;DHT22;27613;48.116;11.656;2023-01-13T00:33:55;6.30;93.90
41924;DHT22;27613;48.116;11.656;2023-01-13T00:36:21;6.30;93.90
41924;DHT22;27613;48.116;11.656;2023-01-13T00:38:47;6.50;93.60
41924;DHT22;27613;48.116;11.656;2023-01-13T00:41:18;6.50;93.40
41924;DHT22;27613;48.116;11.656;2023-01-13T00:43:44;6.60;93.30
41924;DHT22;27613;48.116;11.656;2023-01-13T00:46:12;6.60;93.40
41924;DHT22;27613;48.116;11.656;2023-01-13T00:48:38;6.80;92.90
41924;DHT22;27613;48.116;11.656;2023-01-13T00:51:06;6.70;93.10
41924;DHT22;27613;48.116;11.656;2023-01-13T00:53:37;6.80;92.90
41924;DHT22;27613;48.116;11.656;2023-01-13T00:56:06;6.80;92.90
41924;DHT22;27613;48.116;11.656;2023-01-13T00:58:33;7.10;92.60
41924;DHT22;27613;48.116;11.656;2023-01-13T01:01:04;7.00;92.40
41924;DHT22;27613;48.116;11.656;2023-01-13T01:03:29;7.10;92.30
41924;DHT22;27613;48.116;11.656;2023-01-13T01:05:56;7.20;92.10
41924;DHT22;27613;48.116;11.656;2023-01-13T01:08:22;7.10;92.10
41924;DHT22;27613;48.116;11.656;2023-01-13T01:10:47;7.10;92.10
41924;DHT22;27613;48.116;11.656;2023-01-13T01:13:13;7.20;92.00
41924;DHT22;27613;48.116;11.656;2023-01-13T01:15:42;7.30;91.70
41924;DHT22;27613;48.116;11.656;2023-01-13T01:18:08;7.50;91.40
41924;DHT22;27613;48.116;11.656;2023-01-13T01:20:36;7.40;91.30
41924;DHT22;27613;48.116;11.656;2023-01-13T01:23:01;7.50;91.10
41924;DHT22;27613;48.116;11.656;2023-01-13T01:25:27;7.60;90.80
41924;DHT22;27613;48.116;11.656;2023-01-13T01:27:52;7.60;90.60
41924;DHT22;27613;48.116;11.656;2023-01-13T01:30:18;7.50;91.10
41924;DHT22;27613;48.116;11.656;2023-01-13T01:32:43;7.50;90.70
41924;DHT22;27613;48.116;11.656;2023-01-13T01:35:09;7.70;90.30
41924;DHT22;27613;48.116;11.656;2023-01-13T01:37:35;7.60;90.30
41924;DHT22;27613;48.116;11.656;2023-01-13T01:40:00;7.80;90.10
41924;DHT22;27613;48.116;11.656;2023-01-13T01:42:26;7.80;89.50
41924;DHT22;27613;48.116;11.656;2023-01-13T01:45:20;8.00;88.90
41924;DHT22;27613;48.116;11.656;2023-01-13T01:47:55;8.00;88.80
41924;DHT22;27613;48.116;11.656;2023-01-13T01:50:22;7.90;88.80
41924;DHT22;27613;48.116;11.656;2023-01-13T01:52:52;7.60;89.60
41924;DHT22;27613;48.116;11.656;2023-01-13T01:55:21;7.60;89.70
41924;DHT22;27613;48.116;11.656;2023-01-13T01:57:57;7.60;89.60
41924;DHT22;27613;48.116;11.656;2023-01-13T02:00:26;7.80;88.60
41924;DHT22;27613;48.116;11.656;2023-01-13T02:02:54;7.80;88.60
41924;DHT22;27613;48.116;11.656;2023-01-13T02:05:20;7.90;88.10
41924;DHT22;27613;48.116;11.656;2023-01-13T02:07:48;7.90;88.00
41924;DHT22;27613;48.116;11.656;2023-01-13T02:10:19;7.80;88.00
41924;DHT22;27613;48.116;11.656;2023-01-13T02:12:46;7.80;88.10
41924;DHT22;27613;48.116;11.656;2023-01-13T02:15:14;7.80;88.10
41924;DHT22;27613;48.116;11.656;2023-01-13T02:29:12;7.80;87.00
41924;DHT22;27613;48.116;11.656;2023-01-13T02:32:07;7.80;86.60
41924;DHT22;27613;48.116;11.656;2023-01-13T02:34:39;7.70;87.10
41924;DHT22;27613;48.116;11.656;2023-01-13T02:37:15;7.70;87.30
41924;DHT22;27613;48.116;11.656;2023-01-13T02:40:02;7.60;87.50
41924;DHT22;27613;48.116;11.656;2023-01-13T02:42:33;7.60;87.20
41924;DHT22;27613;48.116;11.656;2023-01-13T02:45:35;7.60;87.20
41924;DHT22;27613;48.116;11.656;2023-01-13T02:48:04;7.50;86.90
41924;DHT22;27613;48.116;11.656;2023-01-13T02:50:38;7.40;87.50
41924;DHT22;27613;48.116;11.656;2023-01-13T02:53:20;7.30;88.30
41924;DHT22;27613;48.116;11.656;2023-01-13T02:55:50;7.30;88.10
41924;DHT22;27613;48.116;11.656;2023-01-13T02:58:23;7.30;87.80
41924;DHT22;27613;48.116;11.656;2023-01-13T03:00:49;7.20;87.90
41924;DHT22;27613;48.116;11.656;2023-01-13T03:03:15;7.20;87.80
41924;DHT22;27613;48.116;11.656;2023-01-13T03:05:42;7.20;87.90
41924;DHT22;27613;48.116;11.656;2023-01-13T03:08:22;7.20;87.80
41924;DHT22;27613;48.116;11.656;2023-01-13T03:10:53;7.30;87.50
41924;DHT22;27613;48.116;11.656;2023-01-13T03:17:01;7.30;87.20
41924;DHT22;27613;48.116;11.656;2023-01-13T03:19:04;7.30;87.30
41924;DHT22;27613;48.116;11.656;2023-01-13T03:21:51;7.40;86.50
41924;DHT22;27613;48.116;11.656;2023-01-13T03:24:52;7.20;86.80
41924;DHT22;27613;48.116;11.656;2023-01-13T03:27:34;7.20;87.30
41924;DHT22;27613;48.116;11.656;2023-01-13T03:30:08;7.10;87.00
41924;DHT22;27613;48.116;11.656;2023-01-13T03:32:42;7.20;86.90
41924;DHT22;27613;48.116;11.656;2023-01-13T03:35:35;7.30;86.60
41924;DHT22;27613;48.116;11.656;2023-01-13T03:38:38;7.20;86.80
41924;DHT22;27613;48.116;11.656;2023-01-13T03:41:11;7.30;86.50
41924;DHT22;27613;48.116;11.656;2023-01-13T03:43:41;7.20;86.90
41924;DHT22;27613;48.116;11.656;2023-01-13T03:46:51;7.20;86.70
41924;DHT22;27613;48.116;11.656;2023-01-13T03:49:22;7.30;86.40
41924;DHT22;27613;48.116;11.656;2023-01-13T03:51:56;7.20;87.10
41924;DHT22;27613;48.116;11.656;2023-01-13T03:54:26;7.20;87.20
41924;DHT22;27613;48.116;11.656;2023-01-13T03:56:58;7.10;87.50
41924;DHT22;27613;48.116;11.656;2023-01-13T03:59:29;7.10;87.40
41924;DHT22;27613;48.116;11.656;2023-01-13T04:02:02;7.10;87.30
41924;DHT22;27613;48.116;11.656;2023-01-13T04:04:55;7.30;86.60
41924;DHT22;27613;48.116;11.656;2023-01-13T04:07:34;7.30;86.60
41924;DHT22;27613;48.116;11.656;2023-01-13T04:10:05;7.30;86.50
41924;DHT22;27613;48.116;11.656;2023-01-13T04:12:35;7.30;86.40
41924;DHT22;27613;48.116;11.656;2023-01-13T04:15:23;7.30;85.90
41924;DHT22;27613;48.116;11.656;2023-01-13T04:17:50;7.30;85.90
41924;DHT22;27613;48.116;11.656;2023-01-13T04:20:16;7.50;85.50
41924;DHT22;27613;48.116;11.656;2023-01-13T04:22:41;7.40;85.60
41924;DHT22;27613;48.116;11.656;2023-01-13T04:25:07;7.50;85.00
41924;DHT22;27613;48.116;11.656;2023-01-13T04:27:33;7.50;84.50
41924;DHT22;27613;48.116;11.656;2023-01-13T04:29:59;7.40;85.20
41924;DHT22;27613;48.116;11.656;2023-01-13T04:32:25;7.30;85.30
41924;DHT22;27613;48.116;11.656;2023-01-13T04:34:50;7.30;85.00
41924;DHT22;27613;48.116;11.656;2023-01-13T04:37:15;7.30;85.30
41924;DHT22;27613;48.116;11.656;2023-01-13T04:39:41;7.40;84.90
41924;DHT22;27613;48.116;11.656;2023-01-13T04:42:06;7.40;84.90
41924;DHT22;27613;48.116;11.656;2023-01-13T04:44:32;7.40;84.90
41924;DHT22;27613;48.116;11.656;2023-01-13T04:47:01;7.60;83.60
41924;DHT22;27613;48.116;11.656;2023-01-13T04:49:26;7.90;82.50
41924;DHT22;27613;48.116;11.656;2023-01-13T04:51:52;7.90;82.30
41924;DHT22;27613;48.116;11.656;2023-01-13T04:54:18;8.10;81.60
41924;DHT22;27613;48.116;11.656;2023-01-13T04:56:43;8.30;81.20
41924;DHT22;27613;48.116;11.656;2023-01-13T04:59:10;8.40;80.70
41924;DHT22;27613;48.116;11.656;2023-01-13T05:01:36;8.50;80.10
41924;DHT22;27613;48.116;11.656;2023-01-13T05:04:02;8.40;80.30
41924;DHT22;27613;48.116;11.656;2023-01-13T05:06:28;8.70;79.60
41924;DHT22;27613;48.116;11.656;2023-01-13T05:08:54;8.90;78.80
41924;DHT22;27613;48.116;11.656;2023-01-13T05:11:19;8.80;79.20
41924;DHT22;27613;48.116;11.656;2023-01-13T05:14:03;8.90;78.70
41924;DHT22;27613;48.116;11.656;2023-01-13T05:16:50;8.90;79.10
41924;DHT22;27613;48.116;11.656;2023-01-13T05:19:28;9.10;78.80
41924;DHT22;27613;48.116;11.656;2023-01-13T05:21:54;9.10;78.80
41924;DHT22;27613;48.116;11.656;2023-01-13T05:24:39;9.00;79.20
41924;DHT22;27613;48.116;11.656;2023-01-13T05:27:23;8.90;79.40
41924;DHT22;27613;48.116;11.656;2023-01-13T05:29:48;9.10;79.30
41924;DHT22;27613;48.116;11.656;2023-01-13T05:32:14;9.00;79.50
41924;DHT22;27613;48.116;11.656;2023-01-13T05:34:39;9.00;79.60
41924;DHT22;27613;48.116;11.656;2023-01-13T05:37:05;9.00;79.80
41924;DHT22;27613;48.116;11.656;2023-01-13T05:39:32;8.90;80.20
41924;DHT22;27613;48.116;11.656;2023-01-13T05:42:16;9.20;78.90
41924;DHT22;27613;48.116;11.656;2023-01-13T05:45:00;9.20;78.90
41924;DHT22;27613;48.116;11.656;2023-01-13T05:47:26;9.10;79.90
41924;DHT22;27613;48.116;11.656;2023-01-13T05:49:51;9.20;78.80
41924;DHT22;27613;48.116;11.656;2023-01-13T05:52:17;9.20;78.90
41924;DHT22;27613;48.116;11.656;2023-01-13T05:54:42;9.20;78.70
41924;DHT22;27613;48.116;11.656;2023-01-13T05:57:08;9.20;78.60
41924;DHT22;27613;48.116;11.656;2023-01-13T05:59:33;9.20;78.50
41924;DHT22;27613;48.116;11.656;2023-01-13T06:01:59;9.20;78.60
41924;DHT22;27613;48.116;11.656;2023-01-13T06:04:24;9.40;77.60
41924;DHT22;27613;48.116;11.656;2023-01-13T06:06:50;9.40;78.00
41924;DHT22;27613;48.116;11.656;2023-01-13T06:09:15;9.30;78.30
41924;DHT22;27613;48.116;11.656;2023-01-13T06:11:41;9.30;78.90
41924;DHT22;27613;48.116;11.656;2023-01-13T06:14:07;9.30;78.60
41924;DHT22;27613;48.116;11.656;2023-01-13T06:16:32;9.30;78.60
41924;DHT22;27613;48.116;11.656;2023-01-13T06:18:58;9.40;78.80
41924;DHT22;27613;48.116;11.656;2023-01-13T06:21:23;9.30;78.90
41924;DHT22;27613;48.116;11.656;2023-01-13T06:23:49;9.40;78.60
41924;DHT22;27613;48.116;11.656;2023-01-13T06:26:22;9.40;78.70
41924;DHT22;27613;48.116;11.656;2023-01-13T06:28:48;9.30;79.10
41924;DHT22;27613;48.116;11.656;2023-01-13T06:31:14;9.30;79.10
41924;DHT22;27613;48.116;11.656;2023-01-13T06:33:46;9.30;79.50
41924;DHT22;27613;48.116;11.656;2023-01-13T06:36:17;9.30;79.60
41924;DHT22;27613;48.116;11.656;2023-01-13T06:38:46;9.30;79.70
41924;DHT22;27613;48.116;11.656;2023-01-13T06:41:13;9.30;80.10
41924;DHT22;27613;48.116;11.656;2023-01-13T06:43:39;9.30;80.20
41924;DHT22;27613;48.116;11.656;2023-01-13T06:46:04;9.20;80.60
41924;DHT22;27613;48.116;11.656;2023-01-13T06:48:31;9.20;80.50
41924;DHT22;27613;48.116;11.656;2023-01-13T06:50:59;9.20;80.70
41924;DHT22;27613;48.116;11.656;2023-01-13T06:53:25;9.20;80.60
41924;DHT22;27613;48.116;11.656;2023-01-13T06:55:50;9.30;80.00
41924;DHT22;27613;48.116;11.656;2023-01-13T06:58:16;9.20;80.40
41924;DHT22;27613;48.116;11.656;2023-01-13T07:00:41;9.30;79.50
41924;DHT22;27613;48.116;11.656;2023-01-13T07:03:10;9.30;79.70
41924;DHT22;27613;48.116;11.656;2023-01-13T07:05:36;9.30;79.80
41924;DHT22;27613;48.116;11.656;2023-01-13T07:08:02;9.30;79.40
41924;DHT22;27613;48.116;11.656;2023-01-13T07:10:29;9.30;79.70
41924;DHT22;27613;48.116;11.656;2023-01-13T07:12:54;9.30;79.70
41924;DHT22;27613;48.116;11.656;2023-01-13T07:15:39;9.20;80.00
41924;DHT22;27613;48.116;11.656;2023-01-13T07:18:05;9.20;79.50
41924;DHT22;27613;48.116;11.656;2023-01-13T07:20:30;9.40;79.00
41924;DHT22;27613;48.116;11.656;2023-01-13T07:22:56;9.30;79.60
41924;DHT22;27613;48.116;11.656;2023-01-13T07:25:22;9.30;79.70
41924;DHT22;27613;48.116;11.656;2023-01-13T07:27:48;9.30;79.70
41924;DHT22;27613;48.116;11.656;2023-01-13T07:30:14;9.30;79.90
41924;DHT22;27613;48.116;11.656;2023-01-13T07:32:39;9.30;79.90
41924;DHT22;27613;48.116;11.656;2023-01-13T07:35:05;9.20;79.90
41924;DHT22;27613;48.116;11.656;2023-01-13T07:37:33;9.20;80.20
41924;DHT22;27613;48.116;11.656;2023-01-13T07:39:58;9.20;79.90
41924;DHT22;27613;48.116;11.656;2023-01-13T07:42:24;9.20;79.20
41924;DHT22;27613;48.116;11.656;2023-01-13T07:45:09;9.10;79.70
41924;DHT22;27613;48.116;11.656;2023-01-13T07:47:35;9.10;79.80
41924;DHT22;27613;48.116;11.656;2023-01-13T07:50:00;9.10;79.90
41924;DHT22;27613;48.116;11.656;2023-01-13T07:52:26;9.10;80.10
41924;DHT22;27613;48.116;11.656;2023-01-13T07:54:51;9.10;80.20
41924;DHT22;27613;48.116;11.656;2023-01-13T07:57:17;9.10;79.90
41924;DHT22;27613;48.116;11.656;2023-01-13T07:59:42;9.10;79.60
41924;DHT22;27613;48.116;11.656;2023-01-13T08:02:11;9.20;79.40
41924;DHT22;27613;48.116;11.656;2023-01-13T08:04:38;9.20;79.10
41924;DHT22;27613;48.116;11.656;2023-01-13T08:07:04;9.30;79.00
41924;DHT22;27613;48.116;11.656;2023-01-13T08:09:30;9.30;78.80
41924;DHT22;27613;48.116;11.656;2023-01-13T08:11:55;9.30;78.00
41924;DHT22;27613;48.116;11.656;2023-01-13T08:14:39;9.40;77.50
41924;DHT22;27613;48.116;11.656;2023-01-13T08:17:07;9.40;77.80
41924;DHT22;27613;48.116;11.656;2023-01-13T08:19:33;9.40;77.70
41924;DHT22;27613;48.116;11.656;2023-01-13T08:21:58;9.40;78.10
41924;DHT22;27613;48.116;11.656;2023-01-13T08:24:24;9.40;78.70
41924;DHT22;27613;48.116;11.656;2023-01-13T08:26:49;9.40;78.10
41924;DHT22;27613;48.116;11.656;2023-01-13T08:29:15;9.40;78.20
41924;DHT22;27613;48.116;11.656;2023-01-13T08:31:41;9.40;78.30
41924;DHT22;27613;48.116;11.656;2023-01-13T08:34:06;9.50;77.90
41924;DHT22;27613;48.116;11.656;2023-01-13T08:36:32;9.40;78.10
41924;DHT22;27613;48.116;11.656;2023-01-13T08:38:57;9.50;78.10
41924;DHT22;27613;48.116;11.656;2023-01-13T08:41:22;9.50;78.00
41924;DHT22;27613;48.116;11.656;2023-01-13T08:44:07;9.60;77.50
41924;DHT22;27613;48.116;11.656;2023-01-13T08:46:34;9.70;77.70
41924;DHT22;27613;48.116;11.656;2023-01-13T08:48:59;9.70;77.10
41924;DHT22;27613;48.116;11.656;2023-01-13T08:51:25;9.70;77.00
41924;DHT22;27613;48.116;11.656;2023-01-13T08:53:51;9.70;77.20
41924;DHT22;27613;48.116;11.656;2023-01-13T08:56:17;9.70;77.10
41924;DHT22;27613;48.116;11.656;2023-01-13T08:58:42;9.80;77.60
41924;DHT22;27613;48.116;11.656;2023-01-13T09:01:09;9.70;77.70
41924;DHT22;27613;48.116;11.656;2023-01-13T09:03:35;9.80;77.60
41924;DHT22;27613;48.116;11.656;2023-01-13T09:06:01;9.80;76.90
41924;DHT22;27613;48.116;11.656;2023-01-13T09:08:27;9.90;76.90
41924;DHT22;27613;48.116;11.656;2023-01-13T09:10:52;9.90;76.10
41924;DHT22;27613;48.116;11.656;2023-01-13T09:13:18;10.00;75.90
41924;DHT22;27613;48.116;11.656;2023-01-13T09:15:44;10.10;76.20
41924;DHT22;27613;48.116;11.656;2023-01-13T09:18:11;10.20;75.20
41924;DHT22;27613;48.116;11.656;2023-01-13T09:20:37;10.30;75.20
41924;DHT22;27613;48.116;11.656;2023-01-13T09:23:03;10.20;74.70
41924;DHT22;27613;48.116;11.656;2023-01-13T09:25:29;10.30;74.80
41924;DHT22;27613;48.116;11.656;2023-01-13T09:27:55;10.30;74.60
41924;DHT22;27613;48.116;11.656;2023-01-13T09:30:21;10.40;74.90
41924;DHT22;27613;48.116;11.656;2023-01-13T09:32:47;10.40;74.60
41924;DHT22;27613;48.116;11.656;2023-01-13T09:35:12;10.40;74.50
41924;DHT22;27613;48.116;11.656;2023-01-13T09:37:39;10.50;73.70
41924;DHT22;27613;48.116;11.656;2023-01-13T09:40:14;10.50;73.90
41924;DHT22;27613;48.116;11.656;2023-01-13T09:42:42;10.60;73.00
41924;DHT22;27613;48.116;11.656;2023-01-13T09:45:29;10.70;73.00
41924;DHT22;27613;48.116;11.656;2023-01-13T09:48:04;10.90;71.80
41924;DHT22;27613;48.116;11.656;2023-01-13T09:53:37;11.00;71.80
41924;DHT22;27613;48.116;11.656;2023-01-13T09:56:04;11.00;71.60
41924;DHT22;27613;48.116;11.656;2023-01-13T09:58:31;11.20;71.30
41924;DHT22;27613;48.116;11.656;2023-01-13T10:01:34;11.40;70.80
41924;DHT22;27613;48.116;11.656;2023-01-13T10:04:03;11.70;69.90
41924;DHT22;27613;48.116;11.656;2023-01-13T10:06:37;12.00;68.80
41924;DHT22;27613;48.116;11.656;2023-01-13T10:09:04;12.10;68.90
41924;DHT22;27613;48.116;11.656;2023-01-13T10:11:38;12.40;68.50
41924;DHT22;27613;48.116;11.656;2023-01-13T10:14:41;12.60;67.60
41924;DHT22;27613;48.116;11.656;2023-01-13T10:17:38;12.70;67.60
41924;DHT22;27613;48.116;11.656;2023-01-13T10:38:26;12.30;68.30
41924;DHT22;27613;48.116;11.656;2023-01-13T10:40:55;12.40;69.20
41924;DHT22;27613;48.116;11.656;2023-01-13T10:43:23;13.90;66.20
41924;DHT22;27613;48.116;11.656;2023-01-13T10:46:02;15.50;62.90
41924;DHT22;27613;48.116;11.656;2023-01-13T10:49:01;16.80;59.80
41924;DHT22;27613;48.116;11.656;2023-01-13T10:51:42;15.90;59.60
41924;DHT22;27613;48.116;11.656;2023-01-13T10:56:41;16.10;58.80
41924;DHT22;27613;48.116;11.656;2023-01-13T10:59:24;14.10;63.00
41924;DHT22;27613;48.116;11.656;2023-01-13T11:01:59;13.30;65.80
41924;DHT22;27613;48.116;11.656;2023-01-13T11:04:42;13.30;66.40
41924;DHT22;27613;48.116;11.656;2023-01-13T11:07:23;12.70;67.80
41924;DHT22;27613;48.116;11.656;2023-01-13T11:12:52;14.00;66.60
41924;DHT22;27613;48.116;11.656;2023-01-13T11:15:30;13.50;66.40
41924;DHT22;27613;48.116;11.656;2023-01-13T11:20:44;12.70;71.60
41924;DHT22;27613;48.116;11.656;2023-01-13T11:23:20;13.30;70.10
41924;DHT22;27613;48.116;11.656;2023-01-13T11:25:50;12.80;71.30
41924;DHT22;27613;48.116;11.656;2023-01-13T11:28:37;12.20;73.80
41924;DHT22;27613;48.116;11.656;2023-01-13T11:31:17;12.10;75.70
41924;DHT22;27613;48.116;11.656;2023-01-13T11:34:11;12.00;77.10
41924;DHT22;27613;48.116;11.656;2023-01-13T11:36:43;12.10;76.40
41924;DHT22;27613;48.116;11.656;2023-01-13T11:42:35;11.40;77.60
41924;DHT22;27613;48.116;11.656;2023-01-13T11:45:19;11.30;78.50
41924;DHT22;27613;48.116;11.656;2023-01-13T11:47:48;11.20;79.00
41924;DHT22;27613;48.116;11.656;2023-01-13T11:50:18;11.00;80.10
41924;DHT22;27613;48.116;11.656;2023-01-13T11:58:34;11.10;81.10
41924;DHT22;27613;48.116;11.656;2023-01-13T12:03:52;11.40;80.20
41924;DHT22;27613;48.116;11.656;2023-01-13T12:06:33;12.20;77.80
41924;DHT22;27613;48.116;11.656;2023-01-13T12:11:53;12.10;77.50
41924;DHT22;27613;48.116;11.656;2023-01-13T12:14:57;12.50;75.30
41924;DHT22;27613;48.116;11.656;2023-01-13T12:23:31;13.10;73.10
41924;DHT22;27613;48.116;11.656;2023-01-13T12:26:10;13.00;73.30
41924;DHT22;27613;48.116;11.656;2023-01-13T12:31:12;12.00;76.20
41924;DHT22;27613;48.116;11.656;2023-01-13T12:39:19;11.20;78.10
41924;DHT22;27613;48.116;11.656;2023-01-13T12:42:13;11.30;78.40
41924;DHT22;27613;48.116;11.656;2023-01-13T12:47:38;11.50;78.20
41924;DHT22;27613;48.116;11.656;2023-01-13T12:52:51;10.90;80.20
41924;DHT22;27613;48.116;11.656;2023-01-13T13:00:59;10.30;88.40
41924;DHT22;27613;48.116;11.656;2023-01-13T13:03:28;10.00;89.10
41924;DHT22;27613;48.116;11.656;2023-01-13T13:06:01;9.90;90.10
41924;DHT22;27613;48.116;11.656;2023-01-13T13:11:45;9.70;90.10
41924;DHT22;27613;48.116;11.656;2023-01-13T13:17:36;9.90;88.60
41924;DHT22;27613;48.116;11.656;2023-01-13T13:19:50;10.00;87.90
41924;DHT22;27613;48.116;11.656;2023-01-13T13:22:19;10.20;87.20
41924;DHT22;27613;48.116;11.656;2023-01-13T13:27:39;10.30;84.60
41924;DHT22;27613;48.116;11.656;2023-01-13T13:30:17;10.80;83.20
41924;DHT22;27613;48.116;11.656;2023-01-13T13:41:16;13.30;75.20
41924;DHT22;27613;48.116;11.656;2023-01-13T13:44:20;12.30;75.40
41924;DHT22;27613;48.116;11.656;2023-01-13T13:47:12;11.40;79.00
41924;DHT22;27613;48.116;11.656;2023-01-13T13:49:46;11.80;78.20
41924;DHT22;27613;48.116;11.656;2023-01-13T13:52:45;12.10;76.90
41924;DHT22;27613;48.116;11.656;2023-01-13T13:55:20;11.50;78.00
41924;DHT22;27613;48.116;11.656;2023-01-13T13:57:52;12.10;77.30
41924;DHT22;27613;48.116;11.656;2023-01-13T14:00:21;11.50;77.70
41924;DHT22;27613;48.116;11.656;2023-01-13T14:02:56;10.90;78.90
41924;DHT22;27613;48.116;11.656;2023-01-13T14:05:23;10.60;79.60
41924;DHT22;27613;48.116;11.656;2023-01-13T14:08:17;10.40;79.70
41924;DHT22;27613;48.116;11.656;2023-01-13T14:10:44;10.60;79.50
41924;DHT22;27613;48.116;11.656;2023-01-13T14:13:24;10.60;77.90
41924;DHT22;27613;48.116;11.656;2023-01-13T14:16:03;10.40;79.10
41924;DHT22;27613;48.116;11.656;2023-01-13T14:18:31;10.10;79.60
41924;DHT22;27613;48.116;11.656;2023-01-13T14:20:59;9.40;82.40
41924;DHT22;27613;48.116;11.656;2023-01-13T14:23:29;7.40;96.60
41924;DHT22;27613;48.116;11.656;2023-01-13T14:26:06;6.70;99.90
41924;DHT22;27613;48.116;11.656;2023-01-13T14:28:41;6.30;99.90
41924;DHT22;27613;48.116;11.656;2023-01-13T14:31:08;6.10;99.90
41924;DHT22;27613;48.116;11.656;2023-01-13T14:33:48;6.10;99.90
41924;DHT22;27613;48.116;11.656;2023-01-13T14:38:49;6.00;99.90
41924;DHT22;27613;48.116;11.656;2023-01-13T14:43:45;5.90;99.90
41924;DHT22;27613;48.116;11.656;2023-01-13T14:46:12;5.80;99.90
41924;DHT22;27613;48.116;11.656;2023-01-13T14:48:38;6.00;99.90
41924;DHT22;27613;48.116;11.656;2023-01-13T14:51:09;6.00;99.90
41924;DHT22;27613;48.116;11.656;2023-01-13T14:53:43;6.10;99.90
41924;DHT22;27613;48.116;11.656;2023-01-13T14:56:40;6.00;99.90
41924;DHT22;27613;48.116;11.656;2023-01-13T15:04:54;6.20;99.90
41924;DHT22;27613;48.116;11.656;2023-01-13T15:07:28;6.10;99.90
41924;DHT22;27613;48.116;11.656;2023-01-13T15:09:59;6.10;99.90
41924;DHT22;27613;48.116;11.656;2023-01-13T15:12:37;6.10;99.90
41924;DHT22;27613;48.116;11.656;2023-01-13T15:15:33;6.00;99.90
41924;DHT22;27613;48.116;11.656;2023-01-13T15:18:01;6.10;99.90
41924;DHT22;27613;48.116;11.656;2023-01-13T15:20:27;6.10;99.90
41924;DHT22;27613;48.116;11.656;2023-01-13T15:22:55;6.10;99.90
41924;DHT22;27613;48.116;11.656;2023-01-13T15:25:22;5.90;99.90
41924;DHT22;27613;48.116;11.656;2023-01-13T15:27:49;5.80;99.90
41924;DHT22;27613;48.116;11.656;2023-01-13T15:30:21;5.60;99.90
41924;DHT22;27613;48.116;11.656;2023-01-13T15:32:52;5.70;99.90
41924;DHT22;27613;48.116;11.656;2023-01-13T15:35:18;5.60;99.90
41924;DHT22;27613;48.116;11.656;2023-01-13T15:37:45;5.60;99.90
41924;DHT22;27613;48.116;11.656;2023-01-13T15:40:22;5.60;99.90
41924;DHT22;27613;48.116;11.656;2023-01-13T15:42:48;5.50;99.90
41924;DHT22;27613;48.116;11.656;2023-01-13T15:45:35;5.50;99.90
41924;DHT22;27613;48.116;11.656;2023-01-13T15:48:21;5.40;99.90
41924;DHT22;27613;48.116;11.656;2023-01-13T15:50:46;5.30;99.90
41924;DHT22;27613;48.116;11.656;2023-01-13T15:53:13;5.30;99.90
41924;DHT22;27613;48.116;11.656;2023-01-13T15:55:39;5.20;99.90
41924;DHT22;27613;48.116;11.656;2023-01-13T15:58:06;5.10;99.90
41924;DHT22;27613;48.116;11.656;2023-01-13T16:00:32;5.10;99.90
41924;DHT22;27613;48.116;11.656;2023-01-13T16:02:57;5.10;99.90
41924;DHT22;27613;48.116;11.656;2023-01-13T16:05:24;5.00;99.90
41924;DHT22;27613;48.116;11.656;2023-01-13T16:07:50;5.00;99.90
41924;DHT22;27613;48.116;11.656;2023-01-13T16:10:21;5.00;99.90
41924;DHT22;27613;48.116;11.656;2023-01-13T16:12:47;5.00;99.90
41924;DHT22;27613;48.116;11.656;2023-01-13T16:15:13;5.00;99.90
41924;DHT22;27613;48.116;11.656;2023-01-13T16:17:41;5.00;99.90
41924;DHT22;27613;48.116;11.656;2023-01-13T16:20:15;5.00;99.90
41924;DHT22;27613;48.116;11.656;2023-01-13T16:22:41;5.20;99.90
41924;DHT22;27613;48.116;11.656;2023-01-13T16:25:14;5.10;99.90
41924;DHT22;27613;48.116;11.656;2023-01-13T16:27:39;5.10;99.90
41924;DHT22;27613;48.116;11.656;2023-01-13T16:30:06;5.10;99.90
41924;DHT22;27613;48.116;11.656;2023-01-13T16:32:31;5.10;99.90
41924;DHT22;27613;48.116;11.656;2023-01-13T16:34:57;5.10;99.90
41924;DHT22;27613;48.116;11.656;2023-01-13T16:37:25;5.00;99.90
41924;DHT22;27613;48.116;11.656;2023-01-13T16:39:51;5.00;99.90
41924;DHT22;27613;48.116;11.656;2023-01-13T16:42:17;5.00;99.90
41924;DHT22;27613;48.116;11.656;2023-01-13T16:44:42;5.00;99.90
41924;DHT22;27613;48.116;11.656;2023-01-13T16:47:13;5.10;99.90
41924;DHT22;27613;48.116;11.656;2023-01-13T16:49:40;5.00;99.90
41924;DHT22;27613;48.116;11.656;2023-01-13T16:52:05;5.10;99.90
41924;DHT22;27613;48.116;11.656;2023-01-13T16:54:34;5.10;99.90
41924;DHT22;27613;48.116;11.656;2023-01-13T16:56:59;5.10;99.90
41924;DHT22;27613;48.116;11.656;2023-01-13T16:59:25;5.10;99.90
41924;DHT22;27613;48.116;11.656;2023-01-13T17:01:50;5.00;99.90
41924;DHT22;27613;48.116;11.656;2023-01-13T17:04:19;5.00;99.90
41924;DHT22;27613;48.116;11.656;2023-01-13T17:06:59;5.00;99.90
41924;DHT22;27613;48.116;11.656;2023-01-13T17:09:28;5.00;99.90
41924;DHT22;27613;48.116;11.656;2023-01-13T17:11:54;5.00;99.90
41924;DHT22;27613;48.116;11.656;2023-01-13T17:14:21;5.00;99.90
41924;DHT22;27613;48.116;11.656;2023-01-13T17:16:50;5.10;99.90
41924;DHT22;27613;48.116;11.656;2023-01-13T17:19:16;5.00;99.90
41924;DHT22;27613;48.116;11.656;2023-01-13T17:21:41;5.00;99.90
41924;DHT22;27613;48.116;11.656;2023-01-13T17:24:07;5.00;99.90
41924;DHT22;27613;48.116;11.656;2023-01-13T17:26:45;4.90;99.90
41924;DHT22;27613;48.116;11.656;2023-01-13T17:29:18;5.00;99.90
41924;DHT22;27613;48.116;11.656;2023-01-13T17:31:46;5.00;99.90
41924;DHT22;27613;48.116;11.656;2023-01-13T17:34:12;5.00;99.90
41924;DHT22;27613;48.116;11.656;2023-01-13T17:36:38;5.10;99.90
41924;DHT22;27613;48.116;11.656;2023-01-13T17:39:04;5.10;99.90
41924;DHT22;27613;48.116;11.656;2023-01-13T17:41:29;5.10;99.90
41924;DHT22;27613;48.116;11.656;2023-01-13T17:43:55;5.20;99.90